Time;durP1;ratioP1;P1;durP2;ratioP2;P2;SDS_P1;SDS_P2;PMS_P1;PMS_P2;Temp;Humidity;BMP_temperature;BMP_pressure;BME280_temperature;BME280_humidity;BME280_pressure;Samples;Min_cycle;Max_cycle;Signal;HPM_P1;HPM_P2
2023/08/03 00:01:57;;;;;;;5.07;2.90;;;20.60;99.90;;;;;;5014064;28;20026;-72
2023/08/03 00:04:22;;;;;;;4.78;2.83;;;20.60;99.90;;;;;;5013972;28;20030;-73
2023/08/03 00:06:48;;;;;;;6.75;2.70;;;20.50;99.90;;;;;;5012496;28;20038;-72
2023/08/03 00:09:14;;;;;;;5.72;2.72;;;20.50;99.90;;;;;;5012448;28;20030;-72
2023/08/03 00:11:39;;;;;;;5.30;2.70;;;20.50;99.90;;;;;;5013544;28;20026;-72
2023/08/03 00:14:05;;;;;;;5.45;3.38;;;20.50;99.90;;;;;;5011730;28;20034;-73
2023/08/03 00:16:31;;;;;;;4.85;2.42;;;20.50;99.90;;;;;;5012561;28;20030;-72
2023/08/03 00:18:56;;;;;;;4.38;2.70;;;20.60;99.90;;;;;;5012026;28;20136;-73
2023/08/03 00:21:22;;;;;;;5.15;2.70;;;20.50;99.90;;;;;;5012365;28;20037;-73
2023/08/03 00:23:48;;;;;;;4.60;2.60;;;20.50;99.90;;;;;;5013503;28;20030;-72
2023/08/03 00:26:13;;;;;;;8.13;3.45;;;20.40;99.90;;;;;;5013490;28;20442;-72
2023/08/03 00:28:39;;;;;;;5.38;2.70;;;20.40;99.90;;;;;;5013413;28;20446;-73
2023/08/03 00:31:05;;;;;;;6.85;2.58;;;20.50;99.90;;;;;;5012258;28;20113;-72
2023/08/03 00:33:30;;;;;;;8.55;2.95;;;20.40;99.90;;;;;;5012095;28;20116;-73
2023/08/03 00:35:56;;;;;;;5.07;2.80;;;20.40;99.90;;;;;;5013460;28;20084;-73
2023/08/03 00:38:22;;;;;;;5.18;2.47;;;20.30;99.90;;;;;;5012229;28;20034;-72
2023/08/03 00:40:50;;;;;;;5.63;2.17;;;20.30;99.90;;;;;;5013369;28;20032;-72
2023/08/03 00:43:16;;;;;;;4.18;2.20;;;20.30;99.90;;;;;;5013387;28;20395;-73
2023/08/03 00:45:41;;;;;;;4.35;2.15;;;20.30;99.90;;;;;;5013326;28;20018;-72
2023/08/03 00:48:07;;;;;;;4.78;2.30;;;20.30;99.90;;;;;;5013679;28;20109;-72
2023/08/03 00:50:33;;;;;;;4.50;2.08;;;20.20;99.90;;;;;;5014679;28;20484;-73
2023/08/03 00:52:59;;;;;;;4.32;2.30;;;20.10;99.90;;;;;;5011963;28;20125;-73
2023/08/03 00:55:24;;;;;;;6.25;2.25;;;20.10;99.90;;;;;;5013173;28;20479;-73
2023/08/03 00:57:50;;;;;;;3.63;1.90;;;20.00;99.90;;;;;;5013357;28;20399;-73
2023/08/03 01:00:16;;;;;;;3.80;2.15;;;19.90;99.90;;;;;;5013117;28;20102;-73
2023/08/03 01:02:42;;;;;;;3.38;1.90;;;19.80;99.90;;;;;;5012036;28;20442;-73
2023/08/03 01:05:07;;;;;;;3.33;1.90;;;19.70;99.90;;;;;;5013416;28;20433;-73
2023/08/03 01:07:34;;;;;;;2.88;1.80;;;19.60;99.90;;;;;;5013191;28;20053;-73
2023/08/03 01:10:00;;;;;;;2.70;1.45;;;19.40;99.90;;;;;;5013061;28;20514;-73
2023/08/03 01:12:27;;;;;;;3.10;1.77;;;19.30;99.90;;;;;;5011858;28;20099;-72
2023/08/03 01:14:52;;;;;;;2.83;1.30;;;19.30;99.90;;;;;;5013628;28;20127;-73
2023/08/03 01:17:19;;;;;;;3.83;1.40;;;19.20;99.90;;;;;;5013053;28;20487;-73
2023/08/03 01:19:44;;;;;;;3.25;1.40;;;19.10;99.90;;;;;;5013238;28;20077;-73
2023/08/03 01:22:12;;;;;;;2.42;1.33;;;19.00;99.90;;;;;;5012928;28;20054;-73
2023/08/03 01:24:38;;;;;;;3.13;1.35;;;19.00;99.90;;;;;;5013617;28;20388;-73
2023/08/03 01:27:04;;;;;;;2.25;1.05;;;18.90;99.90;;;;;;5016402;28;20033;-73
2023/08/03 01:29:30;;;;;;;4.30;1.33;;;18.90;99.90;;;;;;5016382;28;20041;-72
2023/08/03 01:31:58;;;;;;;2.95;1.23;;;18.90;99.90;;;;;;5016395;28;20026;-72
2023/08/03 01:34:27;;;;;;;2.47;1.02;;;18.80;99.90;;;;;;5016272;28;20153;-73
2023/08/03 01:36:54;;;;;;;2.60;1.00;;;18.80;99.90;;;;;;5015150;28;20034;-72
2023/08/03 01:39:22;;;;;;;3.10;1.05;;;18.80;99.90;;;;;;5016108;28;20549;-73
2023/08/03 01:41:48;;;;;;;2.03;1.20;;;18.70;99.90;;;;;;5016277;28;20029;-73
2023/08/03 01:44:18;;;;;;;4.50;1.20;;;18.70;99.90;;;;;;5016107;28;20503;-73
2023/08/03 01:46:44;;;;;;;1.97;1.17;;;18.60;99.90;;;;;;5016575;28;20072;-73
2023/08/03 01:49:10;;;;;;;2.85;1.48;;;18.60;99.90;;;;;;5016231;28;20272;-73
2023/08/03 01:51:36;;;;;;;1.45;0.80;;;18.60;99.90;;;;;;5016127;28;20041;-73
2023/08/03 01:54:02;;;;;;;2.70;1.27;;;18.50;99.90;;;;;;5016322;28;20029;-73
2023/08/03 01:56:27;;;;;;;2.00;1.10;;;18.50;99.90;;;;;;5015988;28;20087;-73
2023/08/03 01:58:53;;;;;;;2.55;1.20;;;18.40;99.90;;;;;;5014677;28;20034;-73
2023/08/03 02:01:18;;;;;;;1.73;0.90;;;18.40;99.90;;;;;;5015889;28;20022;-72
2023/08/03 02:03:44;;;;;;;2.38;0.80;;;18.30;99.90;;;;;;5015861;28;20034;-73
2023/08/03 02:06:10;;;;;;;2.63;1.13;;;18.30;99.90;;;;;;5015762;28;20022;-73
2023/08/03 02:08:35;;;;;;;2.95;1.25;;;18.30;99.90;;;;;;5015666;28;20032;-73
2023/08/03 02:11:01;;;;;;;2.05;0.90;;;18.20;99.90;;;;;;5015657;28;20111;-73
2023/08/03 02:13:26;;;;;;;3.28;1.17;;;18.20;99.90;;;;;;5015594;28;20439;-73
2023/08/03 02:15:52;;;;;;;3.67;1.00;;;18.20;99.90;;;;;;5015627;28;20108;-73
2023/08/03 02:18:18;;;;;;;2.30;1.10;;;18.10;99.90;;;;;;5014037;28;20141;-73
2023/08/03 02:20:43;;;;;;;1.15;0.70;;;18.10;99.90;;;;;;5015490;28;20026;-73
2023/08/03 02:23:09;;;;;;;1.30;0.70;;;18.00;99.90;;;;;;5015914;28;20037;-73
2023/08/03 02:25:34;;;;;;;2.85;0.80;;;17.90;99.90;;;;;;5016142;28;20022;-73
2023/08/03 02:28:00;;;;;;;2.08;1.05;;;17.90;99.90;;;;;;5015355;28;20041;-73
2023/08/03 02:30:26;;;;;;;2.22;0.80;;;17.80;99.90;;;;;;5015707;28;20086;-73
2023/08/03 02:32:51;;;;;;;2.58;0.90;;;17.70;99.90;;;;;;5015839;28;20030;-73
2023/08/03 02:35:17;;;;;;;1.98;0.90;;;17.70;99.90;;;;;;5015382;28;20029;-73
2023/08/03 02:37:43;;;;;;;1.40;0.65;;;17.80;99.90;;;;;;5014789;28;20041;-73
2023/08/03 02:40:08;;;;;;;3.25;1.25;;;17.70;99.90;;;;;;5015132;28;20434;-73
2023/08/03 02:42:36;;;;;;;5.15;1.00;;;17.70;99.90;;;;;;5015237;28;20399;-73
2023/08/03 02:45:02;;;;;;;2.05;0.80;;;17.70;99.90;;;;;;5015399;28;20395;-73
2023/08/03 02:47:27;;;;;;;2.95;0.80;;;17.60;99.90;;;;;;5014762;28;20138;-72
2023/08/03 02:49:53;;;;;;;2.95;0.50;;;17.60;99.90;;;;;;5015211;28;20029;-71
2023/08/03 02:52:18;;;;;;;1.27;0.52;;;17.50;99.90;;;;;;5015385;28;20492;-71
2023/08/03 02:54:44;;;;;;;2.47;0.70;;;17.30;99.90;;;;;;5014904;28;20109;-71
2023/08/03 02:57:10;;;;;;;1.60;0.75;;;17.30;99.90;;;;;;5013710;28;20033;-71
2023/08/03 02:59:35;;;;;;;1.33;0.60;;;17.20;99.90;;;;;;5013268;28;20034;-71
2023/08/03 03:02:02;;;;;;;2.03;0.93;;;17.20;99.90;;;;;;5014522;28;20050;-71
2023/08/03 03:04:28;;;;;;;3.13;0.70;;;17.20;99.90;;;;;;5014644;28;20080;-71
2023/08/03 03:06:53;;;;;;;2.70;0.90;;;17.20;99.90;;;;;;5014535;28;20034;-71
2023/08/03 03:09:19;;;;;;;2.47;0.80;;;17.20;99.90;;;;;;5014826;28;20060;-71
2023/08/03 03:11:45;;;;;;;1.27;0.63;;;17.10;99.90;;;;;;5014444;28;20042;-71
2023/08/03 03:14:10;;;;;;;2.13;0.70;;;17.10;99.90;;;;;;5013234;28;20034;-71
2023/08/03 03:16:36;;;;;;;1.73;0.70;;;17.10;99.90;;;;;;5014862;28;20045;-71
2023/08/03 03:19:02;;;;;;;2.60;0.93;;;17.00;99.90;;;;;;5014142;28;20467;-71
2023/08/03 03:21:27;;;;;;;1.33;0.80;;;17.00;99.90;;;;;;5014701;28;20033;-71
2023/08/03 03:23:53;;;;;;;2.05;0.55;;;17.00;99.90;;;;;;5014377;28;20472;-71
2023/08/03 03:26:19;;;;;;;1.77;0.70;;;16.90;99.90;;;;;;5014333;28;20155;-71
2023/08/03 03:28:44;;;;;;;2.50;0.70;;;16.90;99.90;;;;;;5014663;28;20049;-71
2023/08/03 03:31:10;;;;;;;1.65;0.80;;;16.90;99.90;;;;;;5012955;28;20022;-71
2023/08/03 03:33:35;;;;;;;2.20;0.90;;;16.90;99.90;;;;;;5004499;28;20026;-71
2023/08/03 03:36:01;;;;;;;2.08;0.90;;;16.90;99.90;;;;;;4993630;28;20062;-71
2023/08/03 03:38:27;;;;;;;2.33;0.80;;;16.90;99.90;;;;;;4994594;28;20034;-71
2023/08/03 03:40:52;;;;;;;3.25;0.70;;;16.80;99.90;;;;;;4994316;28;20473;-71
2023/08/03 03:43:18;;;;;;;3.50;0.98;;;16.80;99.90;;;;;;4994361;28;20464;-71
2023/08/03 03:45:43;;;;;;;3.47;0.70;;;16.80;99.90;;;;;;4992946;28;20061;-71
2023/08/03 03:48:09;;;;;;;2.22;0.95;;;16.70;99.90;;;;;;4993579;28;20034;-71
2023/08/03 03:50:35;;;;;;;2.95;0.65;;;16.70;99.90;;;;;;4993907;28;20045;-71
2023/08/03 03:53:01;;;;;;;3.17;1.42;;;16.70;99.90;;;;;;4992869;28;20030;-71
2023/08/03 03:55:27;;;;;;;1.27;0.68;;;16.70;99.90;;;;;;4994136;28;20037;-71
2023/08/03 03:57:52;;;;;;;1.75;0.70;;;16.70;99.90;;;;;;4993852;28;20492;-71
2023/08/03 04:00:18;;;;;;;3.63;0.80;;;16.70;99.90;;;;;;4994156;28;20025;-71
2023/08/03 04:02:44;;;;;;;3.13;0.90;;;16.70;99.90;;;;;;4994091;28;20084;-71
2023/08/03 04:05:09;;;;;;;1.80;0.80;;;16.70;99.90;;;;;;4993971;28;20040;-70
2023/08/03 04:07:35;;;;;;;3.33;0.88;;;16.60;99.90;;;;;;4993928;28;20039;-71
2023/08/03 04:10:00;;;;;;;1.33;0.70;;;16.60;99.90;;;;;;4976566;28;20030;-71
2023/08/03 04:12:26;;;;;;;2.85;0.82;;;16.60;99.90;;;;;;4994026;28;20037;-71
2023/08/03 04:14:52;;;;;;;1.67;0.60;;;16.60;99.90;;;;;;4992681;28;20058;-71
2023/08/03 04:17:17;;;;;;;1.02;0.52;;;16.60;99.90;;;;;;4992537;28;20068;-71
2023/08/03 04:19:43;;;;;;;3.53;0.80;;;16.60;99.90;;;;;;4996891;28;20058;-71
2023/08/03 04:22:09;;;;;;;1.92;0.70;;;16.50;99.90;;;;;;5026776;28;20435;-70
2023/08/03 04:24:34;;;;;;;2.40;0.60;;;16.50;99.90;;;;;;5013658;28;20022;-71
2023/08/03 04:27:00;;;;;;;2.10;1.00;;;16.50;99.90;;;;;;5012901;28;20034;-70
2023/08/03 04:29:25;;;;;;;2.17;0.70;;;16.50;99.90;;;;;;5012853;28;20076;-71
2023/08/03 04:31:51;;;;;;;2.97;0.88;;;16.40;99.90;;;;;;5012109;28;20034;-71
2023/08/03 04:34:17;;;;;;;1.63;0.68;;;16.40;99.90;;;;;;5012175;28;20034;-71
2023/08/03 04:36:44;;;;;;;1.42;0.63;;;16.40;99.90;;;;;;5012306;28;20029;-71
2023/08/03 04:39:10;;;;;;;1.80;0.77;;;16.40;99.90;;;;;;5012389;28;20033;-71
2023/08/03 04:41:36;;;;;;;1.52;0.90;;;16.40;99.90;;;;;;5011638;28;20022;-72
2023/08/03 04:44:02;;;;;;;2.13;0.60;;;16.40;99.90;;;;;;5013072;28;20065;-72
2023/08/03 04:46:27;;;;;;;2.55;0.90;;;16.30;99.90;;;;;;5011896;28;20030;-72
2023/08/03 04:48:53;;;;;;;2.08;0.75;;;16.30;99.90;;;;;;5011441;28;20088;-71
2023/08/03 04:51:18;;;;;;;2.38;0.82;;;16.30;99.90;;;;;;5011938;28;20026;-72
2023/08/03 04:53:44;;;;;;;2.38;1.08;;;16.30;99.90;;;;;;5012205;28;20536;-72
2023/08/03 04:56:10;;;;;;;2.97;0.80;;;16.30;99.90;;;;;;5013424;28;20116;-72
2023/08/03 04:58:36;;;;;;;3.47;0.80;;;16.30;99.90;;;;;;5013018;28;20030;-72
2023/08/03 05:01:01;;;;;;;1.65;0.90;;;16.20;99.90;;;;;;5014453;28;20076;-72
2023/08/03 05:03:27;;;;;;;2.53;0.95;;;16.20;99.90;;;;;;5017044;28;20408;-72
2023/08/03 05:05:53;;;;;;;4.63;0.80;;;16.20;99.90;;;;;;5016790;28;20029;-72
2023/08/03 05:08:22;;;;;;;2.88;1.10;;;16.20;99.90;;;;;;5016744;28;20045;-72
2023/08/03 05:10:48;;;;;;;2.03;0.80;;;16.20;99.90;;;;;;5016990;28;20036;-72
2023/08/03 05:13:16;;;;;;;3.15;1.10;;;16.10;99.90;;;;;;5016757;28;20026;-72
2023/08/03 05:15:41;;;;;;;2.00;1.02;;;16.10;99.90;;;;;;5016930;28;20105;-72
2023/08/03 05:18:07;;;;;;;3.80;1.00;;;16.10;99.90;;;;;;5016338;28;20133;-72
2023/08/03 05:20:33;;;;;;;3.58;1.23;;;16.10;99.90;;;;;;5016526;28;20034;-72
2023/08/03 05:22:59;;;;;;;2.25;0.90;;;16.20;99.90;;;;;;5016508;28;20033;-71
2023/08/03 05:25:24;;;;;;;3.58;1.27;;;16.20;99.90;;;;;;5015189;28;20026;-71
2023/08/03 05:27:50;;;;;;;2.08;0.80;;;16.20;99.90;;;;;;5016756;28;20080;-71
2023/08/03 05:30:16;;;;;;;3.67;1.20;;;16.20;99.90;;;;;;5014655;28;20113;-71
2023/08/03 05:32:41;;;;;;;1.63;0.90;;;16.20;99.90;;;;;;4996367;28;20054;-71
2023/08/03 05:35:07;;;;;;;2.63;0.93;;;16.20;99.90;;;;;;4995524;28;20031;-72
2023/08/03 05:37:33;;;;;;;2.45;0.90;;;16.10;99.90;;;;;;4996834;28;20031;-72
2023/08/03 05:40:04;;;;;;;3.40;1.05;;;16.10;99.90;;;;;;4995377;28;20054;-72
2023/08/03 05:42:38;;;;;;;4.00;1.05;;;16.10;99.90;;;;;;4995433;28;20041;-72
2023/08/03 05:45:12;;;;;;;2.40;1.13;;;16.00;99.90;;;;;;4995610;28;20027;-72
2023/08/03 05:47:40;;;;;;;7.00;1.20;;;16.00;99.90;;;;;;4996662;28;20101;-72
2023/08/03 05:50:15;;;;;;;5.95;1.60;;;16.00;99.90;;;;;;4996491;28;20056;-72
2023/08/03 05:52:42;;;;;;;4.72;2.28;;;15.90;99.90;;;;;;4996459;28;20050;-72
2023/08/03 05:55:11;;;;;;;4.40;1.90;;;15.90;99.90;;;;;;4996621;28;20045;-72
2023/08/03 05:57:38;;;;;;;2.65;1.40;;;15.90;99.90;;;;;;4996313;28;20030;-72
2023/08/03 06:00:15;;;;;;;3.25;1.08;;;15.80;99.90;;;;;;4996199;28;20153;-72
2023/08/03 06:02:41;;;;;;;3.45;1.23;;;15.70;99.90;;;;;;4996553;28;20024;-73
2023/08/03 06:05:26;;;;;;;3.63;1.40;;;15.60;99.90;;;;;;4996528;28;20030;-73
2023/08/03 06:07:52;;;;;;;2.67;1.20;;;15.60;99.90;;;;;;4995933;28;20035;-73
2023/08/03 06:10:18;;;;;;;2.55;1.30;;;15.60;99.90;;;;;;4994882;28;20037;-73
2023/08/03 06:12:44;;;;;;;3.67;1.40;;;15.50;99.90;;;;;;4993906;28;20030;-73
2023/08/03 06:15:10;;;;;;;2.58;1.38;;;15.50;99.90;;;;;;4996342;28;20117;-72
2023/08/03 06:17:36;;;;;;;3.33;1.27;;;15.50;99.90;;;;;;4995882;28;20038;-72
2023/08/03 06:20:01;;;;;;;2.17;1.23;;;15.50;99.90;;;;;;4994697;28;20030;-72
2023/08/03 06:22:27;;;;;;;5.18;1.60;;;15.50;99.90;;;;;;4995866;28;20036;-72
2023/08/03 06:24:53;;;;;;;2.90;1.45;;;15.50;99.90;;;;;;4994755;28;20030;-72
2023/08/03 06:27:18;;;;;;;3.38;1.65;;;15.50;99.90;;;;;;4995752;28;20030;-72
2023/08/03 06:29:44;;;;;;;3.50;1.48;;;15.50;99.90;;;;;;4995754;28;20031;-72
2023/08/03 06:32:25;;;;;;;2.60;1.23;;;15.50;99.90;;;;;;4996006;28;20042;-73
2023/08/03 06:34:51;;;;;;;4.00;1.50;;;15.50;99.90;;;;;;4997382;28;20034;-73
2023/08/03 06:37:17;;;;;;;6.05;1.63;;;15.50;99.90;;;;;;4995756;28;20031;-73
2023/08/03 06:39:42;;;;;;;3.25;1.40;;;15.50;99.90;;;;;;4996194;28;20030;-73
2023/08/03 06:42:08;;;;;;;3.55;1.58;;;15.50;99.90;;;;;;5015098;28;20041;-73
2023/08/03 06:44:34;;;;;;;6.50;3.70;;;15.50;99.90;;;;;;5015080;28;20392;-73
2023/08/03 06:46:59;;;;;;;4.65;2.10;;;15.50;99.90;;;;;;5014985;28;20452;-73
2023/08/03 06:49:25;;;;;;;4.35;2.17;;;15.50;99.90;;;;;;5014846;28;20455;-72
2023/08/03 06:51:51;;;;;;;3.70;1.70;;;15.50;99.90;;;;;;5010137;28;20030;-72
2023/08/03 06:54:16;;;;;;;3.13;1.20;;;15.50;99.90;;;;;;4995496;28;20080;-72
2023/08/03 06:56:42;;;;;;;3.50;1.30;;;15.50;99.90;;;;;;5001742;28;20026;-72
2023/08/03 06:59:07;;;;;;;3.67;1.45;;;15.60;99.90;;;;;;5013486;28;20025;-72
2023/08/03 07:01:33;;;;;;;3.15;0.95;;;15.60;99.90;;;;;;5014711;28;20430;-72
2023/08/03 07:03:59;;;;;;;2.10;1.10;;;15.60;99.90;;;;;;5014109;28;20507;-72
2023/08/03 07:06:25;;;;;;;3.60;1.20;;;15.60;99.90;;;;;;5000101;28;20022;-72
2023/08/03 07:08:50;;;;;;;2.55;1.15;;;15.70;99.90;;;;;;5003899;28;20029;-72
2023/08/03 07:11:16;;;;;;;3.75;1.38;;;15.70;99.90;;;;;;4995667;28;20038;-72
2023/08/03 07:13:41;;;;;;;1.80;1.08;;;15.70;99.90;;;;;;5014443;28;20444;-72
2023/08/03 07:16:08;;;;;;;3.80;1.10;;;15.70;99.90;;;;;;5013267;28;20400;-72
2023/08/03 07:18:34;;;;;;;1.90;1.00;;;15.70;99.90;;;;;;5000969;28;20030;-71
2023/08/03 07:21:04;;;;;;;2.75;1.10;;;15.80;99.90;;;;;;4993880;28;20031;-71
2023/08/03 07:23:29;;;;;;;2.90;0.90;;;15.80;99.90;;;;;;4992217;28;20249;-71
2023/08/03 07:25:55;;;;;;;4.60;1.58;;;15.80;99.90;;;;;;4994741;28;20496;-71
2023/08/03 07:28:21;;;;;;;2.67;1.08;;;15.90;99.90;;;;;;4994233;28;20030;-71
2023/08/03 07:30:47;;;;;;;2.83;1.10;;;15.90;99.90;;;;;;4992614;28;20053;-71
2023/08/03 07:33:12;;;;;;;2.35;1.08;;;16.00;99.90;;;;;;4994503;28;20048;-72
2023/08/03 07:35:38;;;;;;;2.47;1.00;;;16.10;99.90;;;;;;4994568;28;20098;-71
2023/08/03 07:38:04;;;;;;;3.35;1.40;;;16.10;99.90;;;;;;4994389;28;20026;-71
2023/08/03 07:40:29;;;;;;;2.95;1.17;;;16.20;99.90;;;;;;4994474;28;20030;-72
2023/08/03 07:42:55;;;;;;;3.17;1.10;;;16.30;99.90;;;;;;4994609;28;20030;-71
2023/08/03 07:45:21;;;;;;;3.22;1.10;;;16.30;99.90;;;;;;4994612;28;20030;-72
2023/08/03 07:47:46;;;;;;;2.55;0.90;;;16.30;99.90;;;;;;4994262;28;20022;-72
2023/08/03 07:50:12;;;;;;;2.58;0.90;;;16.30;99.90;;;;;;4994522;28;20026;-72
2023/08/03 07:52:39;;;;;;;2.63;1.00;;;16.30;99.90;;;;;;4993080;28;20388;-72
2023/08/03 07:55:05;;;;;;;1.80;0.75;;;16.40;99.90;;;;;;4994213;28;20113;-72
2023/08/03 07:57:31;;;;;;;1.73;0.90;;;16.40;99.90;;;;;;4994075;28;20096;-72
2023/08/03 07:59:56;;;;;;;1.95;0.93;;;16.40;99.90;;;;;;4993184;28;20113;-72
2023/08/03 08:02:22;;;;;;;2.97;1.10;;;16.40;99.90;;;;;;4994187;28;20097;-72
2023/08/03 08:04:50;;;;;;;3.00;1.00;;;16.40;99.90;;;;;;4994122;28;20177;-72
2023/08/03 08:07:16;;;;;;;2.35;1.00;;;16.40;99.90;;;;;;4993994;28;20057;-72
2023/08/03 08:09:42;;;;;;;1.98;1.00;;;16.40;99.90;;;;;;4994008;28;20034;-72
2023/08/03 08:12:08;;;;;;;2.65;1.20;;;16.40;99.90;;;;;;4994003;28;20026;-72
2023/08/03 08:14:34;;;;;;;3.78;1.30;;;16.50;99.90;;;;;;4992747;28;20033;-72
2023/08/03 08:16:59;;;;;;;4.30;1.50;;;16.50;99.90;;;;;;4994043;28;20034;-72
2023/08/03 08:19:25;;;;;;;5.15;1.13;;;16.50;99.90;;;;;;4993724;28;20526;-72
2023/08/03 08:21:51;;;;;;;5.40;1.38;;;16.60;99.90;;;;;;4993946;28;20027;-72
2023/08/03 08:24:17;;;;;;;2.28;1.00;;;16.50;99.90;;;;;;4993917;28;20030;-72
2023/08/03 08:26:44;;;;;;;1.52;0.82;;;16.60;99.90;;;;;;4993897;28;20030;-72
2023/08/03 08:29:10;;;;;;;2.92;1.02;;;16.60;99.90;;;;;;4993935;28;20081;-72
2023/08/03 08:31:35;;;;;;;6.20;1.10;;;16.60;99.90;;;;;;4992689;28;20026;-72
2023/08/03 08:34:01;;;;;;;4.57;1.38;;;16.70;99.90;;;;;;4993874;28;20105;-72
2023/08/03 08:36:27;;;;;;;2.00;0.90;;;16.70;99.90;;;;;;5007891;28;20073;-73
2023/08/03 08:38:52;;;;;;;2.45;1.10;;;16.80;99.90;;;;;;4996482;28;20037;-73
2023/08/03 08:41:18;;;;;;;3.60;1.27;;;16.80;99.90;;;;;;5006456;28;20025;-72
2023/08/03 08:43:44;;;;;;;5.78;1.58;;;16.90;99.90;;;;;;5013680;28;20023;-73
2023/08/03 08:46:09;;;;;;;3.25;1.30;;;16.90;99.90;;;;;;4997951;28;20054;-73
2023/08/03 08:48:35;;;;;;;2.50;1.10;;;16.90;99.90;;;;;;5006426;28;20065;-72
2023/08/03 08:51:03;;;;;;;2.50;1.20;;;16.90;99.90;;;;;;5017232;28;20034;-72
2023/08/03 08:53:29;;;;;;;3.92;1.38;;;16.90;99.90;;;;;;5017103;28;20025;-73
2023/08/03 08:55:55;;;;;;;5.50;1.30;;;16.90;99.90;;;;;;5017377;28;20037;-73
2023/08/03 08:58:20;;;;;;;4.32;1.40;;;17.00;99.90;;;;;;5015732;28;20034;-72
2023/08/03 09:00:47;;;;;;;4.68;1.35;;;17.00;99.90;;;;;;5007286;28;20109;-72
2023/08/03 09:03:14;;;;;;;5.97;1.23;;;17.00;99.90;;;;;;5004282;28;20403;-73
2023/08/03 09:05:39;;;;;;;3.03;1.50;;;17.00;99.90;;;;;;5016458;28;20026;-73
2023/08/03 09:08:18;;;;;;;4.05;1.50;;;17.10;99.90;;;;;;5015759;28;20554;-73
2023/08/03 09:10:52;;;;;;;4.30;1.52;;;17.10;99.90;;;;;;5004674;28;20060;-72
2023/08/03 09:13:36;;;;;;;3.92;1.17;;;17.10;99.90;;;;;;5016761;28;20080;-73
2023/08/03 09:16:03;;;;;;;3.55;1.23;;;17.20;99.90;;;;;;5016766;28;20022;-73
2023/08/03 09:18:31;;;;;;;3.50;1.25;;;17.20;99.90;;;;;;5002912;28;20049;-73
2023/08/03 09:21:17;;;;;;;4.60;1.35;;;17.20;99.90;;;;;;5014729;28;20022;-73
2023/08/03 09:23:42;;;;;;;3.80;1.48;;;17.20;99.90;;;;;;5014139;28;20035;-73
2023/08/03 09:26:09;;;;;;;6.38;1.83;;;17.20;99.90;;;;;;5000303;28;20027;-73
2023/08/03 09:28:42;;;;;;;3.35;1.60;;;17.20;99.90;;;;;;5010152;28;20137;-73
2023/08/03 09:31:09;;;;;;;5.45;1.60;;;17.30;99.90;;;;;;5016277;28;20033;-73
2023/08/03 09:33:35;;;;;;;5.70;2.97;;;17.30;99.90;;;;;;5006346;28;20659;-73
2023/08/03 09:36:01;;;;;;;4.88;2.05;;;17.30;99.90;;;;;;5001846;28;20049;-73
2023/08/03 09:38:27;;;;;;;5.10;1.40;;;17.30;99.90;;;;;;5015379;28;20483;-73
2023/08/03 09:40:52;;;;;;;3.00;1.33;;;17.40;99.90;;;;;;5001194;28;20041;-73
2023/08/03 09:43:20;;;;;;;4.18;1.35;;;17.40;99.90;;;;;;5013926;28;20022;-73
2023/08/03 09:45:46;;;;;;;4.30;1.45;;;17.40;99.90;;;;;;5010733;28;20034;-73
2023/08/03 09:48:12;;;;;;;5.03;1.35;;;17.50;99.90;;;;;;5015390;28;20026;-73
2023/08/03 09:50:40;;;;;;;9.23;1.90;;;17.50;99.90;;;;;;5013355;28;20040;-73
2023/08/03 09:53:11;;;;;;;5.30;1.35;;;17.40;99.90;;;;;;5010198;28;20049;-73
2023/08/03 09:55:45;;;;;;;3.15;1.30;;;17.40;99.90;;;;;;5007218;28;20041;-73
2023/08/03 09:58:19;;;;;;;6.68;2.00;;;17.30;99.90;;;;;;5015104;28;20037;-73
2023/08/03 10:00:46;;;;;;;9.73;3.17;;;17.20;99.90;;;;;;5015906;28;20029;-73
2023/08/03 10:03:15;;;;;;;6.82;1.50;;;17.20;99.90;;;;;;5012284;28;20103;-73
2023/08/03 10:05:45;;;;;;;4.18;1.42;;;17.30;99.90;;;;;;5009942;28;20086;-72
2023/08/03 10:08:22;;;;;;;3.80;1.80;;;17.40;99.90;;;;;;5007259;28;20042;-72
2023/08/03 10:10:52;;;;;;;4.55;1.50;;;17.30;99.90;;;;;;5007834;28;20072;-72
2023/08/03 10:13:18;;;;;;;2.83;1.30;;;17.30;99.90;;;;;;5011727;28;20100;-72
2023/08/03 10:15:44;;;;;;;3.15;1.20;;;17.30;99.90;;;;;;5005181;28;20460;-72
2023/08/03 10:18:10;;;;;;;6.03;1.60;;;17.30;99.90;;;;;;5007445;28;20404;-72
2023/08/03 10:20:38;;;;;;;4.70;1.50;;;17.30;99.90;;;;;;5002864;28;20013;-72
2023/08/03 10:23:16;;;;;;;4.57;1.38;;;17.40;99.90;;;;;;5004696;28;20030;-72
2023/08/03 10:25:57;;;;;;;5.60;2.05;;;17.40;99.90;;;;;;5007179;28;20022;-72
2023/08/03 10:28:26;;;;;;;;;;;17.50;99.90;;;;;;4998326;28;20041;-72
2023/08/03 10:31:11;;;;;;;4.38;1.45;;;17.50;99.90;;;;;;4996019;28;20028;-72
2023/08/03 10:33:46;;;;;;;4.30;1.75;;;17.60;99.90;;;;;;5000234;28;20107;-72
2023/08/03 10:36:43;;;;;;;3.00;1.20;;;17.60;99.90;;;;;;5015429;28;20105;-72
2023/08/03 10:39:14;;;;;;;3.30;1.23;;;17.50;99.90;;;;;;4979199;28;20042;-72
2023/08/03 10:41:49;;;;;;;5.32;1.60;;;17.50;99.90;;;;;;5013427;28;20029;-72
2023/08/03 10:44:15;;;;;;;4.35;1.60;;;17.60;99.90;;;;;;5015101;28;20022;-72
2023/08/03 10:46:47;;;;;;;4.35;1.60;;;17.70;99.90;;;;;;5008967;28;20025;-72
2023/08/03 10:49:19;;;;;;;8.55;4.07;;;17.70;99.90;;;;;;5012531;28;20033;-72
2023/08/03 10:51:53;;;;;;;14.13;7.72;;;17.80;99.90;;;;;;5013136;28;20034;-72
2023/08/03 10:54:20;;;;;;;19.50;9.85;;;17.80;99.90;;;;;;5014892;28;20017;-72
2023/08/03 10:57:10;;;;;;;14.45;7.93;;;17.90;99.90;;;;;;5014217;28;20400;-72
2023/08/03 11:00:08;;;;;;;4.55;1.63;;;17.90;99.90;;;;;;4995881;28;20058;-72
2023/08/03 11:02:34;;;;;;;4.30;1.40;;;17.90;99.90;;;;;;4990744;28;20050;-72
2023/08/03 11:05:05;;;;;;;3.08;1.30;;;18.00;99.90;;;;;;5003578;28;20477;-72
2023/08/03 11:07:32;;;;;;;;;;;18.00;99.90;;;;;;5014962;28;20050;-72
2023/08/03 11:09:59;;;;;;;4.18;1.63;;;18.00;99.90;;;;;;4999589;28;19976;-72
2023/08/03 11:12:27;;;;;;;3.70;1.20;;;17.90;99.90;;;;;;4994931;28;20041;-72
2023/08/03 11:14:54;;;;;;;3.45;1.27;;;17.80;99.90;;;;;;4994856;28;20030;-72
2023/08/03 11:17:31;;;;;;;5.18;1.50;;;17.80;99.90;;;;;;4994687;28;20511;-72
2023/08/03 11:20:00;;;;;;;5.57;1.60;;;17.90;99.90;;;;;;5012236;28;20038;-72
2023/08/03 11:22:26;;;;;;;3.53;1.27;;;17.90;99.90;;;;;;5014250;28;20037;-72
2023/08/03 11:24:56;;;;;;;3.40;1.42;;;17.80;99.90;;;;;;5013868;28;20045;-72
2023/08/03 11:27:22;;;;;;;5.93;1.50;;;17.80;99.90;;;;;;5014407;28;20084;-72
2023/08/03 11:29:48;;;;;;;2.72;1.30;;;17.80;99.90;;;;;;5009254;28;20042;-72
2023/08/03 11:32:29;;;;;;;3.47;1.40;;;17.80;99.90;;;;;;5005543;28;20030;-72
2023/08/03 11:34:59;;;;;;;4.47;1.33;;;17.80;99.90;;;;;;4994583;28;20057;-72
2023/08/03 11:37:27;;;;;;;5.63;1.63;;;17.80;99.90;;;;;;5002701;28;20041;-72
2023/08/03 11:39:53;;;;;;;3.70;1.33;;;17.80;99.90;;;;;;5007668;28;20073;-72
2023/08/03 11:42:19;;;;;;;5.15;1.83;;;17.80;99.90;;;;;;5006841;28;20426;-72
2023/08/03 11:44:45;;;;;;;3.00;1.30;;;17.90;99.90;;;;;;5013957;28;20032;-72
2023/08/03 11:47:12;;;;;;;3.70;1.35;;;17.90;99.90;;;;;;5014128;28;20030;-72
2023/08/03 11:49:37;;;;;;;3.72;1.58;;;18.00;99.90;;;;;;5013773;28;20030;-72
2023/08/03 11:52:03;;;;;;;3.70;1.13;;;18.10;99.90;;;;;;5012496;28;20044;-72
2023/08/03 11:54:37;;;;;;;2.10;1.05;;;18.10;99.90;;;;;;5008094;28;20045;-72
2023/08/03 11:59:49;;;;;;;2.42;0.90;;;18.20;99.90;;;;;;4994153;28;20449;-73
2023/08/03 12:02:16;;;;;;;3.88;1.00;;;18.30;99.90;;;;;;4994710;28;20031;-72
2023/08/03 12:04:41;;;;;;;3.42;0.93;;;18.20;99.90;;;;;;5006333;28;20030;-73
2023/08/03 12:07:07;;;;;;;5.82;1.20;;;18.20;99.90;;;;;;5004295;28;20026;-72
2023/08/03 12:09:38;;;;;;;2.80;0.93;;;18.20;99.90;;;;;;4993223;28;20097;-73
2023/08/03 12:12:09;;;;;;;;;;;18.20;99.90;;;;;;4996201;28;20373;-72
2023/08/03 12:14:35;;;;;;;3.73;0.90;;;18.10;99.90;;;;;;5012483;28;19906;-73
2023/08/03 12:17:01;;;;;;;3.92;1.10;;;18.20;99.90;;;;;;5003025;28;20081;-72
2023/08/03 12:19:34;;;;;;;3.40;1.15;;;18.20;99.90;;;;;;4993743;28;20138;-73
2023/08/03 12:22:03;;;;;;;2.58;1.20;;;18.10;99.90;;;;;;4994018;28;20023;-73
2023/08/03 12:24:29;;;;;;;4.30;1.58;;;18.10;99.90;;;;;;4993936;28;20026;-73
2023/08/03 12:26:56;;;;;;;5.10;1.25;;;18.20;99.90;;;;;;4993892;28;20105;-73
2023/08/03 12:29:21;;;;;;;4.70;1.20;;;18.20;99.90;;;;;;4993876;28;20041;-73
2023/08/03 12:31:47;;;;;;;2.50;1.08;;;18.20;99.90;;;;;;4992805;28;20385;-73
2023/08/03 12:34:13;;;;;;;2.63;1.33;;;18.20;99.90;;;;;;5002674;28;20030;-73
2023/08/03 12:36:39;;;;;;;2.60;1.27;;;18.30;99.90;;;;;;5013193;28;20084;-73
2023/08/03 12:39:07;;;;;;;4.45;1.27;;;18.30;99.90;;;;;;4993879;28;20037;-73
2023/08/03 12:41:33;;;;;;;7.55;1.65;;;18.40;99.90;;;;;;4998449;28;20049;-73
2023/08/03 12:43:59;;;;;;;5.00;1.35;;;18.40;99.90;;;;;;4986558;28;20030;-73
2023/08/03 12:46:25;;;;;;;5.53;1.35;;;18.50;99.90;;;;;;5005423;28;20377;-73
2023/08/03 12:48:52;;;;;;;3.85;1.23;;;18.50;99.90;;;;;;4992417;28;20126;-73
2023/08/03 12:51:18;;;;;;;5.07;1.33;;;18.40;99.90;;;;;;4993853;28;20099;-73